sensor_id;sensor_type;location;lat;lon;timestamp;P1;durP1;ratioP1;P2;durP2;ratioP2
6979;SDS011;3530;52.832;10.680;2023-07-09T00:02:39;4.00;;;3.45;;
6979;SDS011;3530;52.832;10.680;2023-07-09T00:05:25;3.20;;;3.00;;
6979;SDS011;3530;52.832;10.680;2023-07-09T00:11:12;3.05;;;2.85;;
6979;SDS011;3530;52.832;10.680;2023-07-09T00:13:58;3.40;;;3.15;;
6979;SDS011;3530;52.832;10.680;2023-07-09T00:16:45;3.70;;;3.40;;
6979;SDS011;3530;52.832;10.680;2023-07-09T00:19:33;2.90;;;2.70;;
6979;SDS011;3530;52.832;10.680;2023-07-09T00:22:19;2.80;;;2.60;;
6979;SDS011;3530;52.832;10.680;2023-07-09T00:25:05;6.25;;;2.97;;
6979;SDS011;3530;52.832;10.680;2023-07-09T00:27:51;3.05;;;2.85;;
6979;SDS011;3530;52.832;10.680;2023-07-09T00:30:37;3.03;;;2.78;;
6979;SDS011;3530;52.832;10.680;2023-07-09T00:33:22;3.03;;;2.83;;
6979;SDS011;3530;52.832;10.680;2023-07-09T00:36:27;3.72;;;2.90;;
6979;SDS011;3530;52.832;10.680;2023-07-09T00:39:15;3.72;;;3.25;;
6979;SDS011;3530;52.832;10.680;2023-07-09T00:42:04;3.25;;;2.95;;
6979;SDS011;3530;52.832;10.680;2023-07-09T00:44:51;3.75;;;2.95;;
6979;SDS011;3530;52.832;10.680;2023-07-09T00:47:41;3.47;;;3.17;;
6979;SDS011;3530;52.832;10.680;2023-07-09T00:53:30;3.30;;;3.10;;
6979;SDS011;3530;52.832;10.680;2023-07-09T00:56:39;3.17;;;2.97;;
6979;SDS011;3530;52.832;10.680;2023-07-09T00:59:24;3.05;;;2.85;;
6979;SDS011;3530;52.832;10.680;2023-07-09T01:02:10;2.88;;;2.67;;
6979;SDS011;3530;52.832;10.680;2023-07-09T01:04:57;3.42;;;3.08;;
6979;SDS011;3530;52.832;10.680;2023-07-09T01:07:46;3.13;;;2.83;;
6979;SDS011;3530;52.832;10.680;2023-07-09T01:10:33;3.33;;;3.03;;
6979;SDS011;3530;52.832;10.680;2023-07-09T01:13:19;2.95;;;2.75;;
6979;SDS011;3530;52.832;10.680;2023-07-09T01:16:04;4.97;;;3.10;;
6979;SDS011;3530;52.832;10.680;2023-07-09T01:18:51;3.33;;;3.03;;
6979;SDS011;3530;52.832;10.680;2023-07-09T01:21:37;3.95;;;3.40;;
6979;SDS011;3530;52.832;10.680;2023-07-09T01:27:37;4.10;;;3.15;;
6979;SDS011;3530;52.832;10.680;2023-07-09T01:33:14;3.55;;;3.30;;
6979;SDS011;3530;52.832;10.680;2023-07-09T01:35:59;4.30;;;3.35;;
6979;SDS011;3530;52.832;10.680;2023-07-09T01:38:45;2.97;;;2.78;;
6979;SDS011;3530;52.832;10.680;2023-07-09T01:41:31;3.38;;;3.17;;
6979;SDS011;3530;52.832;10.680;2023-07-09T01:44:19;4.03;;;2.83;;
6979;SDS011;3530;52.832;10.680;2023-07-09T01:47:05;3.20;;;3.00;;
6979;SDS011;3530;52.832;10.680;2023-07-09T01:49:51;4.20;;;3.00;;
6979;SDS011;3530;52.832;10.680;2023-07-09T01:52:42;4.88;;;2.88;;
6979;SDS011;3530;52.832;10.680;2023-07-09T01:55:28;3.15;;;2.95;;
6979;SDS011;3530;52.832;10.680;2023-07-09T01:58:14;3.45;;;3.15;;
6979;SDS011;3530;52.832;10.680;2023-07-09T02:01:01;3.63;;;3.20;;
6979;SDS011;3530;52.832;10.680;2023-07-09T02:03:47;4.57;;;3.53;;
6979;SDS011;3530;52.832;10.680;2023-07-09T02:06:32;4.63;;;3.45;;
6979;SDS011;3530;52.832;10.680;2023-07-09T02:09:18;3.50;;;3.17;;
6979;SDS011;3530;52.832;10.680;2023-07-09T02:12:04;7.95;;;3.08;;
6979;SDS011;3530;52.832;10.680;2023-07-09T02:14:50;3.40;;;3.13;;
6979;SDS011;3530;52.832;10.680;2023-07-09T02:17:35;3.38;;;3.17;;
6979;SDS011;3530;52.832;10.680;2023-07-09T02:20:21;3.33;;;2.97;;
6979;SDS011;3530;52.832;10.680;2023-07-09T02:23:07;3.17;;;2.97;;
6979;SDS011;3530;52.832;10.680;2023-07-09T02:25:53;3.03;;;2.83;;
6979;SDS011;3530;52.832;10.680;2023-07-09T02:28:39;3.58;;;3.28;;
6979;SDS011;3530;52.832;10.680;2023-07-09T02:31:24;3.42;;;3.15;;
6979;SDS011;3530;52.832;10.680;2023-07-09T02:34:10;3.40;;;3.10;;
6979;SDS011;3530;52.832;10.680;2023-07-09T02:36:56;5.47;;;3.13;;
6979;SDS011;3530;52.832;10.680;2023-07-09T02:39:43;3.00;;;2.70;;
6979;SDS011;3530;52.832;10.680;2023-07-09T02:42:29;4.40;;;3.55;;
6979;SDS011;3530;52.832;10.680;2023-07-09T02:45:14;2.78;;;2.65;;
6979;SDS011;3530;52.832;10.680;2023-07-09T02:48:00;3.55;;;2.78;;
6979;SDS011;3530;52.832;10.680;2023-07-09T02:50:46;4.05;;;3.05;;
6979;SDS011;3530;52.832;10.680;2023-07-09T02:53:31;2.97;;;2.78;;
6979;SDS011;3530;52.832;10.680;2023-07-09T02:56:17;3.88;;;3.05;;
6979;SDS011;3530;52.832;10.680;2023-07-09T02:59:02;3.25;;;3.05;;
6979;SDS011;3530;52.832;10.680;2023-07-09T03:01:48;3.55;;;3.25;;
6979;SDS011;3530;52.832;10.680;2023-07-09T03:04:34;3.40;;;3.13;;
6979;SDS011;3530;52.832;10.680;2023-07-09T03:07:20;3.50;;;3.20;;
6979;SDS011;3530;52.832;10.680;2023-07-09T03:10:06;5.63;;;3.38;;
6979;SDS011;3530;52.832;10.680;2023-07-09T03:12:52;3.22;;;2.90;;
6979;SDS011;3530;52.832;10.680;2023-07-09T03:15:37;3.63;;;3.35;;
6979;SDS011;3530;52.832;10.680;2023-07-09T03:18:23;3.25;;;3.05;;
6979;SDS011;3530;52.832;10.680;2023-07-09T03:21:09;3.22;;;3.03;;
6979;SDS011;3530;52.832;10.680;2023-07-09T03:23:55;3.15;;;2.95;;
6979;SDS011;3530;52.832;10.680;2023-07-09T03:26:40;3.95;;;3.65;;
6979;SDS011;3530;52.832;10.680;2023-07-09T03:29:26;3.83;;;3.53;;
6979;SDS011;3530;52.832;10.680;2023-07-09T03:32:12;3.90;;;3.60;;
6979;SDS011;3530;52.832;10.680;2023-07-09T03:34:57;3.08;;;2.88;;
6979;SDS011;3530;52.832;10.680;2023-07-09T03:37:43;3.17;;;2.97;;
6979;SDS011;3530;52.832;10.680;2023-07-09T03:40:29;3.67;;;3.38;;
6979;SDS011;3530;52.832;10.680;2023-07-09T03:43:14;3.85;;;3.55;;
6979;SDS011;3530;52.832;10.680;2023-07-09T03:46:00;4.43;;;3.33;;
6979;SDS011;3530;52.832;10.680;2023-07-09T03:48:46;4.53;;;3.60;;
6979;SDS011;3530;52.832;10.680;2023-07-09T03:51:31;3.47;;;3.17;;
6979;SDS011;3530;52.832;10.680;2023-07-09T03:54:17;3.75;;;3.45;;
6979;SDS011;3530;52.832;10.680;2023-07-09T03:57:03;3.92;;;3.53;;
6979;SDS011;3530;52.832;10.680;2023-07-09T03:59:48;4.10;;;3.80;;
6979;SDS011;3530;52.832;10.680;2023-07-09T04:02:34;4.13;;;3.67;;
6979;SDS011;3530;52.832;10.680;2023-07-09T04:05:20;3.55;;;3.25;;
6979;SDS011;3530;52.832;10.680;2023-07-09T04:08:05;4.93;;;3.70;;
6979;SDS011;3530;52.832;10.680;2023-07-09T04:10:52;4.15;;;3.70;;
6979;SDS011;3530;52.832;10.680;2023-07-09T04:13:39;3.92;;;3.65;;
6979;SDS011;3530;52.832;10.680;2023-07-09T04:16:25;3.80;;;3.50;;
6979;SDS011;3530;52.832;10.680;2023-07-09T04:19:10;4.05;;;3.50;;
6979;SDS011;3530;52.832;10.680;2023-07-09T04:21:56;3.65;;;3.35;;
6979;SDS011;3530;52.832;10.680;2023-07-09T04:24:42;3.53;;;3.33;;
6979;SDS011;3530;52.832;10.680;2023-07-09T04:27:28;3.60;;;3.35;;
6979;SDS011;3530;52.832;10.680;2023-07-09T04:30:15;3.50;;;3.20;;
6979;SDS011;3530;52.832;10.680;2023-07-09T04:33:00;4.78;;;3.67;;
6979;SDS011;3530;52.832;10.680;2023-07-09T04:35:46;7.63;;;3.47;;
6979;SDS011;3530;52.832;10.680;2023-07-09T04:38:32;4.35;;;3.95;;
6979;SDS011;3530;52.832;10.680;2023-07-09T04:41:18;3.72;;;3.42;;
6979;SDS011;3530;52.832;10.680;2023-07-09T04:44:04;4.22;;;3.92;;
6979;SDS011;3530;52.832;10.680;2023-07-09T04:46:49;4.57;;;3.30;;
6979;SDS011;3530;52.832;10.680;2023-07-09T04:49:35;3.33;;;3.13;;
6979;SDS011;3530;52.832;10.680;2023-07-09T04:52:21;4.18;;;3.78;;
6979;SDS011;3530;52.832;10.680;2023-07-09T04:55:07;3.83;;;3.50;;
6979;SDS011;3530;52.832;10.680;2023-07-09T04:57:54;3.88;;;3.47;;
6979;SDS011;3530;52.832;10.680;2023-07-09T05:00:39;3.90;;;3.60;;
6979;SDS011;3530;52.832;10.680;2023-07-09T05:03:25;3.50;;;3.25;;
6979;SDS011;3530;52.832;10.680;2023-07-09T05:06:11;3.78;;;3.47;;
6979;SDS011;3530;52.832;10.680;2023-07-09T05:08:57;4.63;;;3.72;;
6979;SDS011;3530;52.832;10.680;2023-07-09T05:11:42;3.97;;;3.67;;
6979;SDS011;3530;52.832;10.680;2023-07-09T05:14:28;3.75;;;3.55;;
6979;SDS011;3530;52.832;10.680;2023-07-09T05:17:14;3.67;;;3.42;;
6979;SDS011;3530;52.832;10.680;2023-07-09T05:19:59;4.28;;;3.50;;
6979;SDS011;3530;52.832;10.680;2023-07-09T05:22:45;8.32;;;4.15;;
6979;SDS011;3530;52.832;10.680;2023-07-09T05:25:30;4.10;;;3.70;;
6979;SDS011;3530;52.832;10.680;2023-07-09T05:28:16;3.85;;;3.55;;
6979;SDS011;3530;52.832;10.680;2023-07-09T05:31:02;3.20;;;3.00;;
6979;SDS011;3530;52.832;10.680;2023-07-09T05:33:49;4.13;;;3.78;;
6979;SDS011;3530;52.832;10.680;2023-07-09T05:36:35;3.83;;;3.50;;
6979;SDS011;3530;52.832;10.680;2023-07-09T05:39:21;3.65;;;3.35;;
6979;SDS011;3530;52.832;10.680;2023-07-09T05:42:06;4.07;;;3.65;;
6979;SDS011;3530;52.832;10.680;2023-07-09T05:44:52;4.22;;;3.70;;
6979;SDS011;3530;52.832;10.680;2023-07-09T05:47:38;3.65;;;3.45;;
6979;SDS011;3530;52.832;10.680;2023-07-09T05:50:23;4.35;;;3.95;;
6979;SDS011;3530;52.832;10.680;2023-07-09T05:53:09;3.78;;;3.47;;
6979;SDS011;3530;52.832;10.680;2023-07-09T05:55:55;4.22;;;3.83;;
6979;SDS011;3530;52.832;10.680;2023-07-09T05:58:41;4.28;;;3.88;;
6979;SDS011;3530;52.832;10.680;2023-07-09T06:01:26;3.65;;;3.20;;
6979;SDS011;3530;52.832;10.680;2023-07-09T06:04:12;3.97;;;3.17;;
6979;SDS011;3530;52.832;10.680;2023-07-09T06:06:59;5.30;;;3.95;;
6979;SDS011;3530;52.832;10.680;2023-07-09T06:09:45;3.75;;;3.45;;
6979;SDS011;3530;52.832;10.680;2023-07-09T06:12:31;5.78;;;3.95;;
6979;SDS011;3530;52.832;10.680;2023-07-09T06:15:16;4.05;;;3.70;;
6979;SDS011;3530;52.832;10.680;2023-07-09T06:18:02;3.50;;;3.30;;
6979;SDS011;3530;52.832;10.680;2023-07-09T06:20:48;3.90;;;3.67;;
6979;SDS011;3530;52.832;10.680;2023-07-09T06:23:34;3.58;;;3.33;;
6979;SDS011;3530;52.832;10.680;2023-07-09T06:26:20;4.30;;;3.90;;
6979;SDS011;3530;52.832;10.680;2023-07-09T06:29:06;4.40;;;4.00;;
6979;SDS011;3530;52.832;10.680;2023-07-09T06:31:51;5.13;;;4.00;;
6979;SDS011;3530;52.832;10.680;2023-07-09T06:34:37;4.20;;;3.90;;
6979;SDS011;3530;52.832;10.680;2023-07-09T06:37:23;4.63;;;4.22;;
6979;SDS011;3530;52.832;10.680;2023-07-09T06:40:09;4.05;;;3.60;;
6979;SDS011;3530;52.832;10.680;2023-07-09T06:42:55;4.05;;;3.75;;
6979;SDS011;3530;52.832;10.680;2023-07-09T06:45:50;4.43;;;4.13;;
6979;SDS011;3530;52.832;10.680;2023-07-09T06:48:37;4.20;;;3.90;;
6979;SDS011;3530;52.832;10.680;2023-07-09T06:51:23;4.75;;;3.75;;
6979;SDS011;3530;52.832;10.680;2023-07-09T06:54:08;4.10;;;3.72;;
6979;SDS011;3530;52.832;10.680;2023-07-09T06:56:54;4.07;;;3.63;;
6979;SDS011;3530;52.832;10.680;2023-07-09T06:59:39;6.18;;;3.92;;
6979;SDS011;3530;52.832;10.680;2023-07-09T07:02:25;4.78;;;4.38;;
6979;SDS011;3530;52.832;10.680;2023-07-09T07:05:11;4.03;;;3.70;;
6979;SDS011;3530;52.832;10.680;2023-07-09T07:07:56;4.22;;;3.92;;
6979;SDS011;3530;52.832;10.680;2023-07-09T07:10:42;4.15;;;3.85;;
6979;SDS011;3530;52.832;10.680;2023-07-09T07:13:32;3.97;;;3.67;;
6979;SDS011;3530;52.832;10.680;2023-07-09T07:16:19;3.42;;;3.13;;
6979;SDS011;3530;52.832;10.680;2023-07-09T07:19:04;4.88;;;4.25;;
6979;SDS011;3530;52.832;10.680;2023-07-09T07:21:51;5.00;;;4.03;;
6979;SDS011;3530;52.832;10.680;2023-07-09T07:24:36;5.05;;;4.55;;
6979;SDS011;3530;52.832;10.680;2023-07-09T07:27:22;3.95;;;3.65;;
6979;SDS011;3530;52.832;10.680;2023-07-09T07:30:08;4.53;;;4.18;;
6979;SDS011;3530;52.832;10.680;2023-07-09T07:32:54;4.60;;;4.20;;
6979;SDS011;3530;52.832;10.680;2023-07-09T07:35:40;5.20;;;4.57;;
6979;SDS011;3530;52.832;10.680;2023-07-09T07:38:25;4.72;;;4.13;;
6979;SDS011;3530;52.832;10.680;2023-07-09T07:41:11;5.80;;;3.92;;
6979;SDS011;3530;52.832;10.680;2023-07-09T07:43:56;3.63;;;3.35;;
6979;SDS011;3530;52.832;10.680;2023-07-09T07:46:42;4.75;;;4.00;;
6979;SDS011;3530;52.832;10.680;2023-07-09T07:49:28;4.55;;;4.25;;
6979;SDS011;3530;52.832;10.680;2023-07-09T07:52:13;4.38;;;4.00;;
6979;SDS011;3530;52.832;10.680;2023-07-09T07:54:59;4.13;;;3.83;;
6979;SDS011;3530;52.832;10.680;2023-07-09T07:57:45;4.57;;;4.28;;
6979;SDS011;3530;52.832;10.680;2023-07-09T08:00:31;4.47;;;4.15;;
6979;SDS011;3530;52.832;10.680;2023-07-09T08:03:17;4.68;;;4.25;;
6979;SDS011;3530;52.832;10.680;2023-07-09T08:06:03;4.63;;;4.30;;
6979;SDS011;3530;52.832;10.680;2023-07-09T08:08:48;4.40;;;3.95;;
6979;SDS011;3530;52.832;10.680;2023-07-09T08:11:34;4.38;;;4.03;;
6979;SDS011;3530;52.832;10.680;2023-07-09T08:14:20;4.40;;;3.95;;
6979;SDS011;3530;52.832;10.680;2023-07-09T08:17:06;5.10;;;4.28;;
6979;SDS011;3530;52.832;10.680;2023-07-09T08:19:53;4.85;;;4.43;;
6979;SDS011;3530;52.832;10.680;2023-07-09T08:22:39;4.13;;;3.88;;
6979;SDS011;3530;52.832;10.680;2023-07-09T08:25:25;4.72;;;4.35;;
6979;SDS011;3530;52.832;10.680;2023-07-09T08:28:10;4.65;;;4.13;;
6979;SDS011;3530;52.832;10.680;2023-07-09T08:30:56;4.82;;;4.50;;
6979;SDS011;3530;52.832;10.680;2023-07-09T08:33:42;3.85;;;3.55;;
6979;SDS011;3530;52.832;10.680;2023-07-09T08:36:28;4.85;;;4.45;;
6979;SDS011;3530;52.832;10.680;2023-07-09T08:39:13;4.80;;;4.40;;
6979;SDS011;3530;52.832;10.680;2023-07-09T08:42:04;4.53;;;4.13;;
6979;SDS011;3530;52.832;10.680;2023-07-09T08:48:04;4.45;;;4.10;;
6979;SDS011;3530;52.832;10.680;2023-07-09T08:50:55;4.07;;;3.78;;
6979;SDS011;3530;52.832;10.680;2023-07-09T08:53:50;4.60;;;4.22;;
6979;SDS011;3530;52.832;10.680;2023-07-09T08:56:39;4.40;;;4.10;;
6979;SDS011;3530;52.832;10.680;2023-07-09T08:59:26;5.43;;;4.40;;
6979;SDS011;3530;52.832;10.680;2023-07-09T09:02:14;5.72;;;4.15;;
6979;SDS011;3530;52.832;10.680;2023-07-09T09:05:08;5.22;;;4.65;;
6979;SDS011;3530;52.832;10.680;2023-07-09T09:08:03;5.25;;;4.30;;
6979;SDS011;3530;52.832;10.680;2023-07-09T09:10:56;5.38;;;4.32;;
6979;SDS011;3530;52.832;10.680;2023-07-09T09:14:04;5.10;;;4.70;;
6979;SDS011;3530;52.832;10.680;2023-07-09T09:16:54;5.22;;;4.72;;
6979;SDS011;3530;52.832;10.680;2023-07-09T09:19:52;4.80;;;4.40;;
6979;SDS011;3530;52.832;10.680;2023-07-09T09:22:50;5.47;;;4.57;;
6979;SDS011;3530;52.832;10.680;2023-07-09T09:25:41;5.10;;;4.70;;
6979;SDS011;3530;52.832;10.680;2023-07-09T09:28:29;5.78;;;4.47;;
6979;SDS011;3530;52.832;10.680;2023-07-09T09:31:21;4.28;;;3.97;;
6979;SDS011;3530;52.832;10.680;2023-07-09T09:34:16;5.28;;;4.32;;
6979;SDS011;3530;52.832;10.680;2023-07-09T09:37:09;4.35;;;3.95;;
6979;SDS011;3530;52.832;10.680;2023-07-09T09:39:56;4.30;;;3.90;;
6979;SDS011;3530;52.832;10.680;2023-07-09T09:42:43;4.38;;;3.97;;
6979;SDS011;3530;52.832;10.680;2023-07-09T09:45:35;4.60;;;4.20;;
6979;SDS011;3530;52.832;10.680;2023-07-09T09:48:28;4.40;;;4.00;;
6979;SDS011;3530;52.832;10.680;2023-07-09T09:51:17;4.32;;;4.03;;
6979;SDS011;3530;52.832;10.680;2023-07-09T09:54:03;4.82;;;4.38;;
6979;SDS011;3530;52.832;10.680;2023-07-09T09:56:56;4.50;;;4.13;;
6979;SDS011;3530;52.832;10.680;2023-07-09T09:59:42;5.57;;;4.93;;
6979;SDS011;3530;52.832;10.680;2023-07-09T10:02:28;4.05;;;3.83;;
6979;SDS011;3530;52.832;10.680;2023-07-09T10:05:14;4.30;;;4.00;;
6979;SDS011;3530;52.832;10.680;2023-07-09T10:11:19;4.75;;;4.40;;
6979;SDS011;3530;52.832;10.680;2023-07-09T10:14:18;5.53;;;4.15;;
6979;SDS011;3530;52.832;10.680;2023-07-09T10:20:47;4.55;;;4.10;;
6979;SDS011;3530;52.832;10.680;2023-07-09T10:27:11;3.85;;;3.55;;
6979;SDS011;3530;52.832;10.680;2023-07-09T10:33:09;4.75;;;3.50;;
6979;SDS011;3530;52.832;10.680;2023-07-09T10:36:12;3.85;;;3.60;;
6979;SDS011;3530;52.832;10.680;2023-07-09T10:39:26;3.42;;;3.13;;
6979;SDS011;3530;52.832;10.680;2023-07-09T10:42:20;5.22;;;3.72;;
6979;SDS011;3530;52.832;10.680;2023-07-09T10:45:10;4.85;;;3.83;;
6979;SDS011;3530;52.832;10.680;2023-07-09T10:47:59;4.53;;;4.22;;
6979;SDS011;3530;52.832;10.680;2023-07-09T10:50:52;4.22;;;3.60;;
6979;SDS011;3530;52.832;10.680;2023-07-09T10:53:40;4.57;;;3.83;;
6979;SDS011;3530;52.832;10.680;2023-07-09T10:56:29;7.00;;;3.90;;
6979;SDS011;3530;52.832;10.680;2023-07-09T10:59:21;6.18;;;4.18;;
6979;SDS011;3530;52.832;10.680;2023-07-09T11:02:15;4.28;;;3.65;;
6979;SDS011;3530;52.832;10.680;2023-07-09T11:05:05;3.65;;;3.45;;
6979;SDS011;3530;52.832;10.680;2023-07-09T11:07:59;5.03;;;3.50;;
6979;SDS011;3530;52.832;10.680;2023-07-09T11:11:01;3.40;;;3.03;;
6979;SDS011;3530;52.832;10.680;2023-07-09T11:13:53;3.78;;;3.55;;
6979;SDS011;3530;52.832;10.680;2023-07-09T11:16:42;4.18;;;3.88;;
6979;SDS011;3530;52.832;10.680;2023-07-09T11:19:28;5.10;;;4.10;;
6979;SDS011;3530;52.832;10.680;2023-07-09T11:23:01;4.30;;;3.90;;
6979;SDS011;3530;52.832;10.680;2023-07-09T11:25:28;4.38;;;3.88;;
6979;SDS011;3530;52.832;10.680;2023-07-09T11:28:14;4.38;;;3.63;;
6979;SDS011;3530;52.832;10.680;2023-07-09T11:31:04;3.95;;;3.75;;
6979;SDS011;3530;52.832;10.680;2023-07-09T11:34:07;3.90;;;3.60;;
6979;SDS011;3530;52.832;10.680;2023-07-09T11:42:27;3.85;;;3.50;;
6979;SDS011;3530;52.832;10.680;2023-07-09T11:45:15;4.47;;;3.63;;
6979;SDS011;3530;52.832;10.680;2023-07-09T11:51:14;5.13;;;3.95;;
6979;SDS011;3530;52.832;10.680;2023-07-09T11:54:01;5.43;;;3.83;;
6979;SDS011;3530;52.832;10.680;2023-07-09T11:56:56;3.83;;;3.53;;
6979;SDS011;3530;52.832;10.680;2023-07-09T11:59:43;6.07;;;4.13;;
6979;SDS011;3530;52.832;10.680;2023-07-09T12:02:30;4.68;;;4.00;;
6979;SDS011;3530;52.832;10.680;2023-07-09T12:05:19;5.03;;;4.35;;
6979;SDS011;3530;52.832;10.680;2023-07-09T12:08:06;5.68;;;4.43;;
6979;SDS011;3530;52.832;10.680;2023-07-09T12:10:53;4.25;;;3.85;;
6979;SDS011;3530;52.832;10.680;2023-07-09T12:13:39;4.68;;;4.28;;
6979;SDS011;3530;52.832;10.680;2023-07-09T12:16:25;4.40;;;4.00;;
6979;SDS011;3530;52.832;10.680;2023-07-09T12:19:14;8.07;;;5.03;;
6979;SDS011;3530;52.832;10.680;2023-07-09T12:22:01;4.20;;;3.80;;
6979;SDS011;3530;52.832;10.680;2023-07-09T12:24:47;4.40;;;4.00;;
6979;SDS011;3530;52.832;10.680;2023-07-09T12:27:34;4.82;;;4.45;;
6979;SDS011;3530;52.832;10.680;2023-07-09T12:30:22;4.78;;;3.70;;
6979;SDS011;3530;52.832;10.680;2023-07-09T12:33:08;4.95;;;4.55;;
6979;SDS011;3530;52.832;10.680;2023-07-09T12:36:04;6.65;;;4.20;;
6979;SDS011;3530;52.832;10.680;2023-07-09T12:38:51;4.07;;;3.70;;
6979;SDS011;3530;52.832;10.680;2023-07-09T12:41:39;6.25;;;3.85;;
6979;SDS011;3530;52.832;10.680;2023-07-09T12:44:26;6.25;;;4.13;;
6979;SDS011;3530;52.832;10.680;2023-07-09T12:47:13;5.20;;;3.92;;
6979;SDS011;3530;52.832;10.680;2023-07-09T12:50:00;7.25;;;4.22;;
6979;SDS011;3530;52.832;10.680;2023-07-09T12:52:48;4.22;;;3.88;;
6979;SDS011;3530;52.832;10.680;2023-07-09T12:55:38;5.07;;;4.63;;
6979;SDS011;3530;52.832;10.680;2023-07-09T12:58:29;3.50;;;3.30;;
6979;SDS011;3530;52.832;10.680;2023-07-09T13:01:17;5.05;;;4.07;;
6979;SDS011;3530;52.832;10.680;2023-07-09T13:04:02;5.18;;;4.00;;
6979;SDS011;3530;52.832;10.680;2023-07-09T13:06:49;4.50;;;4.10;;
6979;SDS011;3530;52.832;10.680;2023-07-09T13:09:35;4.88;;;4.47;;
6979;SDS011;3530;52.832;10.680;2023-07-09T13:12:22;4.35;;;3.95;;
6979;SDS011;3530;52.832;10.680;2023-07-09T13:15:18;5.75;;;4.57;;
6979;SDS011;3530;52.832;10.680;2023-07-09T13:18:09;4.95;;;4.40;;
6979;SDS011;3530;52.832;10.680;2023-07-09T13:20:56;4.32;;;4.00;;
6979;SDS011;3530;52.832;10.680;2023-07-09T13:23:42;4.53;;;3.85;;
6979;SDS011;3530;52.832;10.680;2023-07-09T13:26:28;3.80;;;3.50;;
6979;SDS011;3530;52.832;10.680;2023-07-09T13:29:14;6.50;;;4.30;;
6979;SDS011;3530;52.832;10.680;2023-07-09T13:32:01;3.85;;;3.55;;
6979;SDS011;3530;52.832;10.680;2023-07-09T13:34:46;4.30;;;3.97;;
6979;SDS011;3530;52.832;10.680;2023-07-09T13:37:32;4.15;;;3.55;;
6979;SDS011;3530;52.832;10.680;2023-07-09T13:40:17;4.60;;;4.20;;
6979;SDS011;3530;52.832;10.680;2023-07-09T13:43:07;3.90;;;3.60;;
6979;SDS011;3530;52.832;10.680;2023-07-09T13:45:59;4.68;;;4.25;;
6979;SDS011;3530;52.832;10.680;2023-07-09T13:48:48;3.67;;;3.38;;
6979;SDS011;3530;52.832;10.680;2023-07-09T13:51:34;3.80;;;3.47;;
6979;SDS011;3530;52.832;10.680;2023-07-09T13:54:23;3.90;;;3.60;;
6979;SDS011;3530;52.832;10.680;2023-07-09T13:57:18;4.32;;;3.80;;
6979;SDS011;3530;52.832;10.680;2023-07-09T14:00:05;3.70;;;3.40;;
6979;SDS011;3530;52.832;10.680;2023-07-09T14:02:51;3.95;;;3.60;;
6979;SDS011;3530;52.832;10.680;2023-07-09T14:05:37;4.22;;;3.40;;
6979;SDS011;3530;52.832;10.680;2023-07-09T14:08:22;4.93;;;3.60;;
6979;SDS011;3530;52.832;10.680;2023-07-09T14:11:11;3.80;;;3.47;;
6979;SDS011;3530;52.832;10.680;2023-07-09T14:13:58;4.10;;;3.70;;
6979;SDS011;3530;52.832;10.680;2023-07-09T14:16:45;4.35;;;3.92;;
6979;SDS011;3530;52.832;10.680;2023-07-09T14:19:31;4.78;;;4.13;;
6979;SDS011;3530;52.832;10.680;2023-07-09T14:25:22;2.97;;;2.78;;
6979;SDS011;3530;52.832;10.680;2023-07-09T14:28:13;6.18;;;3.63;;
6979;SDS011;3530;52.832;10.680;2023-07-09T14:31:02;4.10;;;3.65;;
6979;SDS011;3530;52.832;10.680;2023-07-09T14:33:48;4.45;;;3.70;;
6979;SDS011;3530;52.832;10.680;2023-07-09T14:36:34;4.20;;;3.80;;
6979;SDS011;3530;52.832;10.680;2023-07-09T14:39:20;4.07;;;3.78;;
6979;SDS011;3530;52.832;10.680;2023-07-09T14:42:10;4.22;;;3.88;;
6979;SDS011;3530;52.832;10.680;2023-07-09T14:44:57;3.95;;;3.40;;
6979;SDS011;3530;52.832;10.680;2023-07-09T14:47:42;3.75;;;3.45;;
6979;SDS011;3530;52.832;10.680;2023-07-09T14:50:28;4.53;;;3.97;;
6979;SDS011;3530;52.832;10.680;2023-07-09T14:53:15;6.65;;;4.05;;
6979;SDS011;3530;52.832;10.680;2023-07-09T14:56:06;8.00;;;4.32;;
6979;SDS011;3530;52.832;10.680;2023-07-09T14:58:52;6.53;;;4.28;;
6979;SDS011;3530;52.832;10.680;2023-07-09T15:01:38;4.50;;;4.05;;
6979;SDS011;3530;52.832;10.680;2023-07-09T15:04:28;3.88;;;3.58;;
6979;SDS011;3530;52.832;10.680;2023-07-09T15:07:18;3.65;;;3.35;;
6979;SDS011;3530;52.832;10.680;2023-07-09T15:10:04;4.40;;;4.00;;
6979;SDS011;3530;52.832;10.680;2023-07-09T15:12:54;4.82;;;3.80;;
6979;SDS011;3530;52.832;10.680;2023-07-09T15:15:40;4.38;;;3.97;;
6979;SDS011;3530;52.832;10.680;2023-07-09T15:18:26;4.60;;;4.10;;
6979;SDS011;3530;52.832;10.680;2023-07-09T15:21:11;4.05;;;3.65;;
6979;SDS011;3530;52.832;10.680;2023-07-09T15:23:59;5.35;;;4.22;;
6979;SDS011;3530;52.832;10.680;2023-07-09T15:26:45;4.85;;;4.28;;
6979;SDS011;3530;52.832;10.680;2023-07-09T15:29:34;6.47;;;4.25;;
6979;SDS011;3530;52.832;10.680;2023-07-09T15:32:19;4.25;;;3.58;;
6979;SDS011;3530;52.832;10.680;2023-07-09T15:35:05;5.30;;;4.50;;
6979;SDS011;3530;52.832;10.680;2023-07-09T15:37:51;4.85;;;4.43;;
6979;SDS011;3530;52.832;10.680;2023-07-09T15:40:36;5.68;;;4.20;;
6979;SDS011;3530;52.832;10.680;2023-07-09T15:43:22;5.05;;;4.05;;
6979;SDS011;3530;52.832;10.680;2023-07-09T15:46:08;3.90;;;3.60;;
6979;SDS011;3530;52.832;10.680;2023-07-09T15:49:00;4.22;;;3.65;;
6979;SDS011;3530;52.832;10.680;2023-07-09T15:51:46;4.15;;;3.78;;
6979;SDS011;3530;52.832;10.680;2023-07-09T15:54:32;4.50;;;4.05;;
6979;SDS011;3530;52.832;10.680;2023-07-09T15:57:18;4.43;;;3.85;;
6979;SDS011;3530;52.832;10.680;2023-07-09T16:00:37;4.43;;;4.03;;
6979;SDS011;3530;52.832;10.680;2023-07-09T16:03:16;4.28;;;3.88;;
6979;SDS011;3530;52.832;10.680;2023-07-09T16:06:02;4.88;;;3.58;;
6979;SDS011;3530;52.832;10.680;2023-07-09T16:08:47;4.55;;;4.15;;
6979;SDS011;3530;52.832;10.680;2023-07-09T16:11:33;4.10;;;3.75;;
6979;SDS011;3530;52.832;10.680;2023-07-09T16:14:25;4.28;;;3.88;;
6979;SDS011;3530;52.832;10.680;2023-07-09T16:17:12;4.57;;;4.15;;
6979;SDS011;3530;52.832;10.680;2023-07-09T16:19:58;5.00;;;4.50;;
6979;SDS011;3530;52.832;10.680;2023-07-09T16:22:44;4.40;;;3.45;;
6979;SDS011;3530;52.832;10.680;2023-07-09T16:25:32;3.83;;;3.53;;
6979;SDS011;3530;52.832;10.680;2023-07-09T16:28:19;5.53;;;4.38;;
6979;SDS011;3530;52.832;10.680;2023-07-09T16:31:05;4.65;;;3.70;;
6979;SDS011;3530;52.832;10.680;2023-07-09T16:33:51;4.47;;;4.10;;
6979;SDS011;3530;52.832;10.680;2023-07-09T16:36:37;4.35;;;3.95;;
6979;SDS011;3530;52.832;10.680;2023-07-09T16:42:10;5.47;;;3.72;;
6979;SDS011;3530;52.832;10.680;2023-07-09T16:44:56;4.32;;;3.92;;
6979;SDS011;3530;52.832;10.680;2023-07-09T16:47:42;4.57;;;4.18;;
6979;SDS011;3530;52.832;10.680;2023-07-09T16:50:28;4.93;;;3.97;;
6979;SDS011;3530;52.832;10.680;2023-07-09T16:53:14;8.77;;;4.13;;
6979;SDS011;3530;52.832;10.680;2023-07-09T16:56:01;4.18;;;3.63;;
6979;SDS011;3530;52.832;10.680;2023-07-09T16:58:47;4.55;;;4.15;;
6979;SDS011;3530;52.832;10.680;2023-07-09T17:01:32;4.95;;;4.45;;
6979;SDS011;3530;52.832;10.680;2023-07-09T17:04:20;4.57;;;4.18;;
6979;SDS011;3530;52.832;10.680;2023-07-09T17:07:10;6.03;;;4.00;;
6979;SDS011;3530;52.832;10.680;2023-07-09T17:09:56;4.30;;;3.90;;
6979;SDS011;3530;52.832;10.680;2023-07-09T17:12:43;5.43;;;4.00;;
6979;SDS011;3530;52.832;10.680;2023-07-09T17:15:33;6.50;;;3.78;;
6979;SDS011;3530;52.832;10.680;2023-07-09T17:18:25;5.10;;;4.60;;
6979;SDS011;3530;52.832;10.680;2023-07-09T17:21:13;4.93;;;4.22;;
6979;SDS011;3530;52.832;10.680;2023-07-09T17:23:59;3.70;;;3.40;;
6979;SDS011;3530;52.832;10.680;2023-07-09T17:26:45;6.20;;;3.70;;
6979;SDS011;3530;52.832;10.680;2023-07-09T17:29:31;4.57;;;4.15;;
6979;SDS011;3530;52.832;10.680;2023-07-09T17:32:17;4.35;;;3.95;;
6979;SDS011;3530;52.832;10.680;2023-07-09T17:35:03;5.43;;;4.85;;
6979;SDS011;3530;52.832;10.680;2023-07-09T17:37:50;4.00;;;3.70;;
6979;SDS011;3530;52.832;10.680;2023-07-09T17:40:38;5.40;;;3.97;;
6979;SDS011;3530;52.832;10.680;2023-07-09T17:43:24;6.88;;;4.18;;
6979;SDS011;3530;52.832;10.680;2023-07-09T17:46:10;6.20;;;4.55;;
6979;SDS011;3530;52.832;10.680;2023-07-09T17:48:57;4.53;;;4.13;;